Saint George Island, AK (99591)

1:30 PM HADT on October 31, 2014 (GMT -0900)
Saint George | Change Station
CLOSE
Current Station
Airport
Location: St. George,
Elevation: 125 ft
Nearby Weather Stations

Elev 125 ft 56.58 °N, 169.66 °W | Updated 15 minutes ago

Light Snow
Light Snow Mist
38 °F
Feels Like 24 °F
N
39
Wind Variable Wind from NNE
Gusts 52 mph

Today
High -- | Low -- °F
--% Chance of Precip.
Yesterday
High -- | Low -- °F
Precip. -- in
9:25 AM 6:37 PM
First Quarter, 59% visible
Pressure 28.62 in
Visibility 2.0 miles
Clouds Overcast 500 ft
Windchill 24 °F
Dew Point 37 °F
Humidity 97%
Rainfall 0.00 in
Snow Depth Not available.
UV 0 out of 12
Pollen Not available.
Air Quality Not available.
Flu Activity Not available.
SPECI PAPB 312215Z AUTO 03034G45KT 2SM -SN BR OVC005 03/03 A2862 RMK AO2 PK WND 03047/2203 RAE15SNB15 P0000 T00330028 TSNO $

More Conditions Fewer Conditions

Pressure 28.62 in
Visibility 2.0 miles
Clouds Overcast 500 ft
Windchill 24 °F
Dew Point 37 °F
Humidity 97%
Rainfall 0.00 in
Snow Depth Not available.
UV 0 out of 12
Pollen Not available.
Air Quality Not available.
Flu Activity Not available.
SPECI PAPB 312215Z AUTO 03034G45KT 2SM -SN BR OVC005 03/03 A2862 RMK AO2 PK WND 03047/2203 RAE15SNB15 P0000 T00330028 TSNO $

More Conditions Fewer Conditions

10-Day Weather Forecast

Almanac

Astronomy

Oct. 31, 2014 Rise Set
Actual Time
Civil Twilight
Nautical Twilight
Astronomical Twilight
Moon
Length of Visible Light
Length of Day
Tomorrow will be .
, % of the Moon is Illuminated

Today's Extremes

State Highs State Lows

Community

WunderPhotos

Upload Photos

1,766,757 photos uploaded!

WunderBlogs® & News

Nearby

Air Quality

  Air Quality AQ Index Pollutant
Not available.

Snow Depth

Station Depth Elevation

Earthquake Activity

City Distance Mag. Time & Date
Minimum magnitude displayed is 2.5.

Coastal Water Temperatures

Place Temperature

Nearby Weather Stations